sensor_id;sensor_type;location;lat;lon;timestamp;P1;durP1;ratioP1;P2;durP2;ratioP2
12745;SDS011;6437;53.686;10.030;2023-04-06T00:00:47;8.45;;;2.65;;
12745;SDS011;6437;53.686;10.030;2023-04-06T00:02:49;8.68;;;3.08;;
12745;SDS011;6437;53.686;10.030;2023-04-06T00:04:52;8.35;;;2.90;;
12745;SDS011;6437;53.686;10.030;2023-04-06T00:06:53;6.47;;;2.67;;
12745;SDS011;6437;53.686;10.030;2023-04-06T00:08:58;11.68;;;3.60;;
12745;SDS011;6437;53.686;10.030;2023-04-06T00:11:00;8.55;;;3.28;;
12745;SDS011;6437;53.686;10.030;2023-04-06T00:13:02;9.55;;;2.38;;
12745;SDS011;6437;53.686;10.030;2023-04-06T00:15:05;6.60;;;2.80;;
12745;SDS011;6437;53.686;10.030;2023-04-06T00:17:08;8.35;;;2.10;;
12745;SDS011;6437;53.686;10.030;2023-04-06T00:19:09;11.70;;;3.03;;
12745;SDS011;6437;53.686;10.030;2023-04-06T00:21:11;7.38;;;2.63;;
12745;SDS011;6437;53.686;10.030;2023-04-06T00:23:14;9.50;;;3.65;;
12745;SDS011;6437;53.686;10.030;2023-04-06T00:25:17;10.98;;;2.58;;
12745;SDS011;6437;53.686;10.030;2023-04-06T00:27:19;9.15;;;3.28;;
12745;SDS011;6437;53.686;10.030;2023-04-06T00:29:21;5.50;;;1.90;;
12745;SDS011;6437;53.686;10.030;2023-04-06T00:31:23;6.00;;;2.58;;
12745;SDS011;6437;53.686;10.030;2023-04-06T00:33:25;12.48;;;3.30;;
12745;SDS011;6437;53.686;10.030;2023-04-06T00:35:27;9.80;;;2.67;;
12745;SDS011;6437;53.686;10.030;2023-04-06T00:37:29;9.35;;;3.28;;
12745;SDS011;6437;53.686;10.030;2023-04-06T00:39:30;9.50;;;2.55;;
12745;SDS011;6437;53.686;10.030;2023-04-06T00:41:34;9.82;;;3.10;;
12745;SDS011;6437;53.686;10.030;2023-04-06T00:43:35;7.68;;;2.75;;
12745;SDS011;6437;53.686;10.030;2023-04-06T00:45:38;6.45;;;2.80;;
12745;SDS011;6437;53.686;10.030;2023-04-06T00:47:40;9.82;;;2.42;;
12745;SDS011;6437;53.686;10.030;2023-04-06T00:49:42;10.13;;;2.83;;
12745;SDS011;6437;53.686;10.030;2023-04-06T00:51:45;8.65;;;3.08;;
12745;SDS011;6437;53.686;10.030;2023-04-06T00:53:46;9.80;;;3.33;;
12745;SDS011;6437;53.686;10.030;2023-04-06T00:55:48;7.68;;;2.67;;
12745;SDS011;6437;53.686;10.030;2023-04-06T00:57:52;11.30;;;3.50;;
12745;SDS011;6437;53.686;10.030;2023-04-06T00:59:54;7.90;;;3.15;;
12745;SDS011;6437;53.686;10.030;2023-04-06T01:01:57;12.18;;;3.47;;
12745;SDS011;6437;53.686;10.030;2023-04-06T01:03:59;8.98;;;3.28;;
12745;SDS011;6437;53.686;10.030;2023-04-06T01:06:02;7.50;;;2.72;;
12745;SDS011;6437;53.686;10.030;2023-04-06T01:08:03;6.90;;;2.22;;
12745;SDS011;6437;53.686;10.030;2023-04-06T01:10:05;8.02;;;3.28;;
12745;SDS011;6437;53.686;10.030;2023-04-06T01:12:08;8.30;;;2.50;;
12745;SDS011;6437;53.686;10.030;2023-04-06T01:14:11;6.50;;;3.13;;
12745;SDS011;6437;53.686;10.030;2023-04-06T01:16:13;11.82;;;4.50;;
12745;SDS011;6437;53.686;10.030;2023-04-06T01:18:15;11.13;;;3.25;;
12745;SDS011;6437;53.686;10.030;2023-04-06T01:22:21;11.10;;;5.00;;
12745;SDS011;6437;53.686;10.030;2023-04-06T01:24:25;9.05;;;3.40;;
12745;SDS011;6437;53.686;10.030;2023-04-06T01:26:26;10.55;;;3.08;;
12745;SDS011;6437;53.686;10.030;2023-04-06T01:28:29;8.07;;;3.42;;
12745;SDS011;6437;53.686;10.030;2023-04-06T01:30:31;7.22;;;3.83;;
12745;SDS011;6437;53.686;10.030;2023-04-06T01:32:33;8.00;;;3.20;;
12745;SDS011;6437;53.686;10.030;2023-04-06T01:34:35;7.32;;;3.88;;
12745;SDS011;6437;53.686;10.030;2023-04-06T01:36:36;8.70;;;3.17;;
12745;SDS011;6437;53.686;10.030;2023-04-06T01:38:40;15.80;;;4.10;;
12745;SDS011;6437;53.686;10.030;2023-04-06T01:40:42;10.55;;;4.15;;
12745;SDS011;6437;53.686;10.030;2023-04-06T01:42:45;8.25;;;3.22;;
12745;SDS011;6437;53.686;10.030;2023-04-06T01:44:47;8.95;;;3.00;;
12745;SDS011;6437;53.686;10.030;2023-04-06T01:46:49;9.02;;;3.25;;
12745;SDS011;6437;53.686;10.030;2023-04-06T01:48:51;9.57;;;4.20;;
12745;SDS011;6437;53.686;10.030;2023-04-06T01:50:53;8.02;;;2.97;;
12745;SDS011;6437;53.686;10.030;2023-04-06T01:52:55;10.25;;;2.90;;
12745;SDS011;6437;53.686;10.030;2023-04-06T01:54:58;5.45;;;2.15;;
12745;SDS011;6437;53.686;10.030;2023-04-06T01:57:00;10.77;;;2.65;;
12745;SDS011;6437;53.686;10.030;2023-04-06T01:59:02;8.90;;;2.67;;
12745;SDS011;6437;53.686;10.030;2023-04-06T02:01:04;8.70;;;3.10;;
12745;SDS011;6437;53.686;10.030;2023-04-06T02:03:06;11.15;;;3.35;;
12745;SDS011;6437;53.686;10.030;2023-04-06T02:05:08;8.20;;;2.42;;
12745;SDS011;6437;53.686;10.030;2023-04-06T02:07:10;11.45;;;3.38;;
12745;SDS011;6437;53.686;10.030;2023-04-06T02:09:12;5.85;;;2.22;;
12745;SDS011;6437;53.686;10.030;2023-04-06T02:11:15;5.75;;;1.75;;
12745;SDS011;6437;53.686;10.030;2023-04-06T02:13:17;6.80;;;2.28;;
12745;SDS011;6437;53.686;10.030;2023-04-06T02:15:19;11.32;;;3.35;;
12745;SDS011;6437;53.686;10.030;2023-04-06T02:17:20;10.80;;;2.45;;
12745;SDS011;6437;53.686;10.030;2023-04-06T02:19:22;8.30;;;2.20;;
12745;SDS011;6437;53.686;10.030;2023-04-06T02:21:24;12.60;;;2.80;;
12745;SDS011;6437;53.686;10.030;2023-04-06T02:23:26;16.13;;;3.28;;
12745;SDS011;6437;53.686;10.030;2023-04-06T02:25:27;7.30;;;1.48;;
12745;SDS011;6437;53.686;10.030;2023-04-06T02:27:30;8.05;;;2.63;;
12745;SDS011;6437;53.686;10.030;2023-04-06T02:29:32;11.50;;;3.97;;
12745;SDS011;6437;53.686;10.030;2023-04-06T02:31:34;9.57;;;2.83;;
12745;SDS011;6437;53.686;10.030;2023-04-06T02:33:36;10.10;;;2.92;;
12745;SDS011;6437;53.686;10.030;2023-04-06T02:35:38;10.20;;;2.63;;
12745;SDS011;6437;53.686;10.030;2023-04-06T02:37:40;8.00;;;2.28;;
12745;SDS011;6437;53.686;10.030;2023-04-06T02:39:41;6.93;;;2.45;;
12745;SDS011;6437;53.686;10.030;2023-04-06T02:41:43;7.00;;;2.17;;
12745;SDS011;6437;53.686;10.030;2023-04-06T02:45:49;11.70;;;2.83;;
12745;SDS011;6437;53.686;10.030;2023-04-06T02:47:51;10.15;;;2.58;;
12745;SDS011;6437;53.686;10.030;2023-04-06T02:49:53;10.68;;;2.70;;
12745;SDS011;6437;53.686;10.030;2023-04-06T02:51:55;9.13;;;3.20;;
12745;SDS011;6437;53.686;10.030;2023-04-06T02:53:57;11.23;;;3.05;;
12745;SDS011;6437;53.686;10.030;2023-04-06T02:55:59;7.38;;;3.42;;
12745;SDS011;6437;53.686;10.030;2023-04-06T02:58:01;6.80;;;2.28;;
12745;SDS011;6437;53.686;10.030;2023-04-06T03:00:05;9.75;;;3.05;;
12745;SDS011;6437;53.686;10.030;2023-04-06T03:02:08;11.65;;;3.95;;
12745;SDS011;6437;53.686;10.030;2023-04-06T03:04:10;8.15;;;3.17;;
12745;SDS011;6437;53.686;10.030;2023-04-06T03:06:12;8.80;;;2.97;;
12745;SDS011;6437;53.686;10.030;2023-04-06T03:08:13;9.68;;;3.13;;
12745;SDS011;6437;53.686;10.030;2023-04-06T03:10:15;9.60;;;3.13;;
12745;SDS011;6437;53.686;10.030;2023-04-06T03:12:17;8.00;;;2.38;;
12745;SDS011;6437;53.686;10.030;2023-04-06T03:14:19;6.45;;;2.72;;
12745;SDS011;6437;53.686;10.030;2023-04-06T03:16:23;12.13;;;3.83;;
12745;SDS011;6437;53.686;10.030;2023-04-06T03:18:25;8.27;;;3.05;;
12745;SDS011;6437;53.686;10.030;2023-04-06T03:20:27;15.38;;;3.33;;
12745;SDS011;6437;53.686;10.030;2023-04-06T03:22:29;8.60;;;2.83;;
12745;SDS011;6437;53.686;10.030;2023-04-06T03:24:31;10.98;;;3.63;;
12745;SDS011;6437;53.686;10.030;2023-04-06T03:26:33;11.43;;;3.75;;
12745;SDS011;6437;53.686;10.030;2023-04-06T03:30:36;13.52;;;3.17;;
12745;SDS011;6437;53.686;10.030;2023-04-06T03:32:40;11.68;;;3.40;;
12745;SDS011;6437;53.686;10.030;2023-04-06T03:34:41;13.32;;;3.10;;
12745;SDS011;6437;53.686;10.030;2023-04-06T03:36:43;10.95;;;3.33;;
12745;SDS011;6437;53.686;10.030;2023-04-06T03:38:46;16.45;;;4.25;;
12745;SDS011;6437;53.686;10.030;2023-04-06T03:40:48;9.93;;;2.83;;
12745;SDS011;6437;53.686;10.030;2023-04-06T03:42:50;10.75;;;3.28;;
12745;SDS011;6437;53.686;10.030;2023-04-06T03:44:52;11.57;;;3.22;;
12745;SDS011;6437;53.686;10.030;2023-04-06T03:46:54;14.55;;;3.55;;
12745;SDS011;6437;53.686;10.030;2023-04-06T03:48:57;11.85;;;3.88;;
12745;SDS011;6437;53.686;10.030;2023-04-06T03:50:59;7.18;;;3.28;;
12745;SDS011;6437;53.686;10.030;2023-04-06T03:53:01;12.55;;;2.53;;
12745;SDS011;6437;53.686;10.030;2023-04-06T03:55:03;17.48;;;3.45;;
12745;SDS011;6437;53.686;10.030;2023-04-06T03:57:06;14.82;;;4.00;;
12745;SDS011;6437;53.686;10.030;2023-04-06T03:59:08;8.55;;;3.97;;
12745;SDS011;6437;53.686;10.030;2023-04-06T04:01:10;16.50;;;4.47;;
12745;SDS011;6437;53.686;10.030;2023-04-06T04:03:12;11.40;;;3.88;;
12745;SDS011;6437;53.686;10.030;2023-04-06T04:07:17;11.30;;;2.70;;
12745;SDS011;6437;53.686;10.030;2023-04-06T04:09:19;16.00;;;4.10;;
12745;SDS011;6437;53.686;10.030;2023-04-06T04:11:21;9.90;;;3.75;;
12745;SDS011;6437;53.686;10.030;2023-04-06T04:13:23;8.10;;;3.60;;
12745;SDS011;6437;53.686;10.030;2023-04-06T04:15:25;12.57;;;4.32;;
12745;SDS011;6437;53.686;10.030;2023-04-06T04:17:26;9.05;;;3.95;;
12745;SDS011;6437;53.686;10.030;2023-04-06T04:19:28;9.52;;;4.38;;
12745;SDS011;6437;53.686;10.030;2023-04-06T04:21:31;9.43;;;3.67;;
12745;SDS011;6437;53.686;10.030;2023-04-06T04:23:33;12.90;;;3.85;;
12745;SDS011;6437;53.686;10.030;2023-04-06T04:25:35;9.70;;;3.97;;
12745;SDS011;6437;53.686;10.030;2023-04-06T04:27:37;8.35;;;4.50;;
12745;SDS011;6437;53.686;10.030;2023-04-06T04:29:39;9.57;;;3.15;;
12745;SDS011;6437;53.686;10.030;2023-04-06T04:31:41;10.70;;;4.13;;
12745;SDS011;6437;53.686;10.030;2023-04-06T04:33:42;10.45;;;4.13;;
12745;SDS011;6437;53.686;10.030;2023-04-06T04:35:44;12.45;;;4.85;;
12745;SDS011;6437;53.686;10.030;2023-04-06T04:39:50;7.90;;;2.70;;
12745;SDS011;6437;53.686;10.030;2023-04-06T04:41:52;14.27;;;4.45;;
12745;SDS011;6437;53.686;10.030;2023-04-06T04:43:54;10.02;;;4.45;;
12745;SDS011;6437;53.686;10.030;2023-04-06T04:45:56;9.60;;;4.68;;
12745;SDS011;6437;53.686;10.030;2023-04-06T04:47:59;12.82;;;5.18;;
12745;SDS011;6437;53.686;10.030;2023-04-06T04:50:01;15.95;;;4.95;;
12745;SDS011;6437;53.686;10.030;2023-04-06T04:52:02;16.38;;;5.10;;
12745;SDS011;6437;53.686;10.030;2023-04-06T04:54:06;12.35;;;4.57;;
12745;SDS011;6437;53.686;10.030;2023-04-06T04:56:08;10.77;;;3.80;;
12745;SDS011;6437;53.686;10.030;2023-04-06T04:58:10;9.55;;;3.85;;
12745;SDS011;6437;53.686;10.030;2023-04-06T05:00:15;13.32;;;4.43;;
12745;SDS011;6437;53.686;10.030;2023-04-06T05:02:17;13.88;;;4.93;;
12745;SDS011;6437;53.686;10.030;2023-04-06T05:04:19;21.17;;;5.97;;
12745;SDS011;6437;53.686;10.030;2023-04-06T05:06:21;13.00;;;4.45;;
12745;SDS011;6437;53.686;10.030;2023-04-06T05:08:23;16.15;;;4.63;;
12745;SDS011;6437;53.686;10.030;2023-04-06T05:10:26;15.05;;;4.90;;
12745;SDS011;6437;53.686;10.030;2023-04-06T05:12:28;29.48;;;6.47;;
12745;SDS011;6437;53.686;10.030;2023-04-06T05:14:30;12.30;;;4.15;;
12745;SDS011;6437;53.686;10.030;2023-04-06T05:16:33;12.45;;;4.28;;
12745;SDS011;6437;53.686;10.030;2023-04-06T05:18:35;16.95;;;6.03;;
12745;SDS011;6437;53.686;10.030;2023-04-06T05:20:37;14.20;;;5.38;;
12745;SDS011;6437;53.686;10.030;2023-04-06T05:22:40;15.32;;;4.90;;
12745;SDS011;6437;53.686;10.030;2023-04-06T05:24:42;19.15;;;5.22;;
12745;SDS011;6437;53.686;10.030;2023-04-06T05:26:45;12.55;;;4.65;;
12745;SDS011;6437;53.686;10.030;2023-04-06T05:28:48;15.38;;;4.47;;
12745;SDS011;6437;53.686;10.030;2023-04-06T05:30:49;20.83;;;4.60;;
12745;SDS011;6437;53.686;10.030;2023-04-06T05:32:51;17.88;;;6.05;;
12745;SDS011;6437;53.686;10.030;2023-04-06T05:34:53;12.77;;;5.15;;
12745;SDS011;6437;53.686;10.030;2023-04-06T05:38:57;12.65;;;5.22;;
12745;SDS011;6437;53.686;10.030;2023-04-06T05:40:59;13.90;;;5.13;;
12745;SDS011;6437;53.686;10.030;2023-04-06T05:43:03;17.63;;;5.20;;
12745;SDS011;6437;53.686;10.030;2023-04-06T05:45:05;14.45;;;4.70;;
12745;SDS011;6437;53.686;10.030;2023-04-06T05:47:08;15.88;;;5.45;;
12745;SDS011;6437;53.686;10.030;2023-04-06T05:49:10;20.00;;;5.47;;
12745;SDS011;6437;53.686;10.030;2023-04-06T05:51:12;16.52;;;4.22;;
12745;SDS011;6437;53.686;10.030;2023-04-06T05:53:14;21.55;;;5.35;;
12745;SDS011;6437;53.686;10.030;2023-04-06T05:55:16;13.75;;;4.78;;
12745;SDS011;6437;53.686;10.030;2023-04-06T05:57:18;18.13;;;5.43;;
12745;SDS011;6437;53.686;10.030;2023-04-06T05:59:21;30.10;;;5.43;;
12745;SDS011;6437;53.686;10.030;2023-04-06T06:01:23;13.43;;;4.30;;
12745;SDS011;6437;53.686;10.030;2023-04-06T06:03:25;14.23;;;4.50;;
12745;SDS011;6437;53.686;10.030;2023-04-06T06:05:28;10.68;;;3.88;;
12745;SDS011;6437;53.686;10.030;2023-04-06T06:07:30;12.30;;;4.28;;
12745;SDS011;6437;53.686;10.030;2023-04-06T06:09:34;12.02;;;5.18;;
12745;SDS011;6437;53.686;10.030;2023-04-06T06:11:36;11.77;;;4.55;;
12745;SDS011;6437;53.686;10.030;2023-04-06T06:13:39;15.57;;;5.95;;
12745;SDS011;6437;53.686;10.030;2023-04-06T06:15:42;13.63;;;5.90;;
12745;SDS011;6437;53.686;10.030;2023-04-06T06:17:44;16.73;;;4.25;;
12745;SDS011;6437;53.686;10.030;2023-04-06T06:19:46;9.55;;;5.15;;
12745;SDS011;6437;53.686;10.030;2023-04-06T06:21:49;14.45;;;5.85;;
12745;SDS011;6437;53.686;10.030;2023-04-06T06:23:51;9.60;;;4.47;;
12745;SDS011;6437;53.686;10.030;2023-04-06T06:25:54;13.15;;;5.18;;
12745;SDS011;6437;53.686;10.030;2023-04-06T06:27:58;16.80;;;4.95;;
12745;SDS011;6437;53.686;10.030;2023-04-06T06:30:00;8.30;;;4.43;;
12745;SDS011;6437;53.686;10.030;2023-04-06T06:34:05;13.65;;;4.95;;
12745;SDS011;6437;53.686;10.030;2023-04-06T06:36:07;10.48;;;5.05;;
12745;SDS011;6437;53.686;10.030;2023-04-06T06:38:09;14.30;;;4.78;;
12745;SDS011;6437;53.686;10.030;2023-04-06T06:40:11;9.82;;;5.00;;
12745;SDS011;6437;53.686;10.030;2023-04-06T06:42:16;11.75;;;6.20;;
12745;SDS011;6437;53.686;10.030;2023-04-06T06:44:17;10.57;;;4.35;;
12745;SDS011;6437;53.686;10.030;2023-04-06T06:46:19;11.93;;;5.60;;
12745;SDS011;6437;53.686;10.030;2023-04-06T06:48:23;13.30;;;6.47;;
12745;SDS011;6437;53.686;10.030;2023-04-06T06:50:25;9.80;;;4.32;;
12745;SDS011;6437;53.686;10.030;2023-04-06T06:52:27;12.40;;;5.07;;
12745;SDS011;6437;53.686;10.030;2023-04-06T06:54:29;13.18;;;4.32;;
12745;SDS011;6437;53.686;10.030;2023-04-06T06:56:30;11.13;;;4.35;;
12745;SDS011;6437;53.686;10.030;2023-04-06T06:58:32;10.63;;;4.72;;
12745;SDS011;6437;53.686;10.030;2023-04-06T07:00:34;16.02;;;5.75;;
12745;SDS011;6437;53.686;10.030;2023-04-06T07:02:36;18.58;;;4.60;;
12745;SDS011;6437;53.686;10.030;2023-04-06T07:04:39;16.98;;;4.53;;
12745;SDS011;6437;53.686;10.030;2023-04-06T07:06:41;11.38;;;4.97;;
12745;SDS011;6437;53.686;10.030;2023-04-06T07:08:43;9.27;;;4.07;;
12745;SDS011;6437;53.686;10.030;2023-04-06T07:10:45;13.00;;;3.80;;
12745;SDS011;6437;53.686;10.030;2023-04-06T07:14:49;13.57;;;5.00;;
12745;SDS011;6437;53.686;10.030;2023-04-06T07:16:51;12.95;;;4.68;;
12745;SDS011;6437;53.686;10.030;2023-04-06T07:18:53;16.45;;;4.25;;
12745;SDS011;6437;53.686;10.030;2023-04-06T07:22:58;9.65;;;4.65;;
12745;SDS011;6437;53.686;10.030;2023-04-06T07:25:00;9.90;;;5.03;;
12745;SDS011;6437;53.686;10.030;2023-04-06T07:27:02;8.82;;;3.35;;
12745;SDS011;6437;53.686;10.030;2023-04-06T07:29:04;10.75;;;4.93;;
12745;SDS011;6437;53.686;10.030;2023-04-06T07:31:07;11.65;;;4.40;;
12745;SDS011;6437;53.686;10.030;2023-04-06T07:33:08;9.38;;;3.70;;
12745;SDS011;6437;53.686;10.030;2023-04-06T07:35:10;11.23;;;4.43;;
12745;SDS011;6437;53.686;10.030;2023-04-06T07:37:14;19.13;;;4.32;;
12745;SDS011;6437;53.686;10.030;2023-04-06T07:39:16;7.45;;;4.07;;
12745;SDS011;6437;53.686;10.030;2023-04-06T07:41:18;6.55;;;4.07;;
12745;SDS011;6437;53.686;10.030;2023-04-06T07:43:20;12.27;;;3.65;;
12745;SDS011;6437;53.686;10.030;2023-04-06T07:45:22;11.40;;;4.28;;
12745;SDS011;6437;53.686;10.030;2023-04-06T07:47:24;9.98;;;4.32;;
12745;SDS011;6437;53.686;10.030;2023-04-06T07:49:26;13.13;;;4.03;;
12745;SDS011;6437;53.686;10.030;2023-04-06T07:51:28;9.45;;;4.30;;
12745;SDS011;6437;53.686;10.030;2023-04-06T07:53:32;6.70;;;2.47;;
12745;SDS011;6437;53.686;10.030;2023-04-06T07:55:34;9.30;;;3.00;;
12745;SDS011;6437;53.686;10.030;2023-04-06T07:57:36;11.77;;;2.95;;
12745;SDS011;6437;53.686;10.030;2023-04-06T07:59:37;9.93;;;2.33;;
12745;SDS011;6437;53.686;10.030;2023-04-06T08:01:39;4.85;;;2.33;;
12745;SDS011;6437;53.686;10.030;2023-04-06T08:05:43;13.60;;;2.13;;
12745;SDS011;6437;53.686;10.030;2023-04-06T08:07:45;8.10;;;2.83;;
12745;SDS011;6437;53.686;10.030;2023-04-06T08:09:49;12.93;;;3.75;;
12745;SDS011;6437;53.686;10.030;2023-04-06T08:11:50;7.03;;;2.85;;
12745;SDS011;6437;53.686;10.030;2023-04-06T08:13:53;7.22;;;2.50;;
12745;SDS011;6437;53.686;10.030;2023-04-06T08:15:55;10.50;;;2.50;;
12745;SDS011;6437;53.686;10.030;2023-04-06T08:17:57;5.45;;;1.42;;
12745;SDS011;6437;53.686;10.030;2023-04-06T08:20:00;10.82;;;2.58;;
12745;SDS011;6437;53.686;10.030;2023-04-06T08:22:03;7.07;;;2.95;;
12745;SDS011;6437;53.686;10.030;2023-04-06T08:24:05;9.18;;;2.72;;
12745;SDS011;6437;53.686;10.030;2023-04-06T08:26:09;16.38;;;1.50;;
12745;SDS011;6437;53.686;10.030;2023-04-06T08:28:11;7.20;;;1.92;;
12745;SDS011;6437;53.686;10.030;2023-04-06T08:30:16;5.15;;;2.30;;
12745;SDS011;6437;53.686;10.030;2023-04-06T08:32:19;13.80;;;2.88;;
12745;SDS011;6437;53.686;10.030;2023-04-06T08:34:21;6.97;;;1.70;;
12745;SDS011;6437;53.686;10.030;2023-04-06T08:36:23;7.88;;;1.75;;
12745;SDS011;6437;53.686;10.030;2023-04-06T08:40:27;4.40;;;2.30;;
12745;SDS011;6437;53.686;10.030;2023-04-06T08:42:31;11.27;;;2.50;;
12745;SDS011;6437;53.686;10.030;2023-04-06T08:44:34;8.25;;;2.08;;
12745;SDS011;6437;53.686;10.030;2023-04-06T08:46:37;6.88;;;1.95;;
12745;SDS011;6437;53.686;10.030;2023-04-06T08:48:40;5.50;;;1.92;;
12745;SDS011;6437;53.686;10.030;2023-04-06T08:50:42;6.72;;;2.10;;
12745;SDS011;6437;53.686;10.030;2023-04-06T08:52:45;9.25;;;2.42;;
12745;SDS011;6437;53.686;10.030;2023-04-06T08:54:49;8.18;;;2.13;;
12745;SDS011;6437;53.686;10.030;2023-04-06T08:56:51;8.98;;;3.28;;
12745;SDS011;6437;53.686;10.030;2023-04-06T08:58:56;6.03;;;2.78;;
12745;SDS011;6437;53.686;10.030;2023-04-06T09:00:58;9.52;;;2.55;;
12745;SDS011;6437;53.686;10.030;2023-04-06T09:03:01;8.32;;;2.35;;
12745;SDS011;6437;53.686;10.030;2023-04-06T09:05:04;10.80;;;2.83;;
12745;SDS011;6437;53.686;10.030;2023-04-06T09:09:08;9.88;;;2.38;;
12745;SDS011;6437;53.686;10.030;2023-04-06T09:11:11;6.45;;;2.35;;
12745;SDS011;6437;53.686;10.030;2023-04-06T09:13:13;12.38;;;2.95;;
12745;SDS011;6437;53.686;10.030;2023-04-06T09:15:20;9.60;;;2.88;;
12745;SDS011;6437;53.686;10.030;2023-04-06T09:17:23;4.75;;;1.98;;
12745;SDS011;6437;53.686;10.030;2023-04-06T09:19:25;6.57;;;3.22;;
12745;SDS011;6437;53.686;10.030;2023-04-06T09:21:27;5.57;;;2.65;;
12745;SDS011;6437;53.686;10.030;2023-04-06T09:23:30;7.18;;;2.85;;
12745;SDS011;6437;53.686;10.030;2023-04-06T09:27:35;9.27;;;2.78;;
12745;SDS011;6437;53.686;10.030;2023-04-06T09:29:38;8.32;;;2.55;;
12745;SDS011;6437;53.686;10.030;2023-04-06T09:31:42;4.90;;;1.98;;
12745;SDS011;6437;53.686;10.030;2023-04-06T09:33:45;11.60;;;2.25;;
12745;SDS011;6437;53.686;10.030;2023-04-06T09:35:49;8.52;;;2.55;;
12745;SDS011;6437;53.686;10.030;2023-04-06T09:37:51;9.35;;;2.40;;
12745;SDS011;6437;53.686;10.030;2023-04-06T09:40:01;4.82;;;1.58;;
12745;SDS011;6437;53.686;10.030;2023-04-06T09:42:04;6.30;;;1.48;;
12745;SDS011;6437;53.686;10.030;2023-04-06T09:44:06;5.32;;;2.13;;
12745;SDS011;6437;53.686;10.030;2023-04-06T09:46:09;9.30;;;2.28;;
12745;SDS011;6437;53.686;10.030;2023-04-06T09:48:13;7.97;;;2.22;;
12745;SDS011;6437;53.686;10.030;2023-04-06T09:50:15;6.75;;;1.42;;
12745;SDS011;6437;53.686;10.030;2023-04-06T09:52:17;6.38;;;2.50;;
12745;SDS011;6437;53.686;10.030;2023-04-06T09:54:21;5.85;;;1.58;;
12745;SDS011;6437;53.686;10.030;2023-04-06T09:56:24;6.45;;;1.60;;
12745;SDS011;6437;53.686;10.030;2023-04-06T09:58:31;13.20;;;2.30;;
12745;SDS011;6437;53.686;10.030;2023-04-06T10:00:40;4.32;;;1.77;;
12745;SDS011;6437;53.686;10.030;2023-04-06T10:02:48;4.25;;;1.88;;
12745;SDS011;6437;53.686;10.030;2023-04-06T10:04:59;6.55;;;2.05;;
12745;SDS011;6437;53.686;10.030;2023-04-06T10:07:05;8.82;;;2.38;;
12745;SDS011;6437;53.686;10.030;2023-04-06T10:09:09;4.88;;;1.63;;
12745;SDS011;6437;53.686;10.030;2023-04-06T10:11:11;6.47;;;2.10;;
12745;SDS011;6437;53.686;10.030;2023-04-06T10:13:13;7.60;;;2.40;;
12745;SDS011;6437;53.686;10.030;2023-04-06T10:15:16;11.75;;;1.98;;
12745;SDS011;6437;53.686;10.030;2023-04-06T10:17:18;11.30;;;2.53;;
12745;SDS011;6437;53.686;10.030;2023-04-06T10:19:21;15.40;;;2.53;;
12745;SDS011;6437;53.686;10.030;2023-04-06T10:21:28;6.78;;;2.45;;
12745;SDS011;6437;53.686;10.030;2023-04-06T10:23:32;12.80;;;2.92;;
12745;SDS011;6437;53.686;10.030;2023-04-06T10:25:36;10.43;;;2.80;;
12745;SDS011;6437;53.686;10.030;2023-04-06T10:27:38;10.00;;;2.85;;
12745;SDS011;6437;53.686;10.030;2023-04-06T10:29:41;7.30;;;2.40;;
12745;SDS011;6437;53.686;10.030;2023-04-06T10:31:45;9.43;;;2.58;;
12745;SDS011;6437;53.686;10.030;2023-04-06T10:33:53;12.43;;;3.17;;
12745;SDS011;6437;53.686;10.030;2023-04-06T10:35:56;11.32;;;3.00;;
12745;SDS011;6437;53.686;10.030;2023-04-06T10:38:01;8.13;;;2.90;;
12745;SDS011;6437;53.686;10.030;2023-04-06T10:40:05;5.20;;;2.25;;
12745;SDS011;6437;53.686;10.030;2023-04-06T10:42:08;4.82;;;1.65;;
12745;SDS011;6437;53.686;10.030;2023-04-06T10:44:16;6.75;;;2.65;;
12745;SDS011;6437;53.686;10.030;2023-04-06T10:46:24;6.50;;;2.47;;
12745;SDS011;6437;53.686;10.030;2023-04-06T10:48:36;8.38;;;2.53;;
12745;SDS011;6437;53.686;10.030;2023-04-06T10:50:39;9.80;;;2.35;;
12745;SDS011;6437;53.686;10.030;2023-04-06T10:54:44;9.07;;;3.08;;
12745;SDS011;6437;53.686;10.030;2023-04-06T10:56:48;16.65;;;2.72;;
12745;SDS011;6437;53.686;10.030;2023-04-06T10:58:51;5.22;;;2.10;;
12745;SDS011;6437;53.686;10.030;2023-04-06T11:00:55;8.00;;;1.90;;
12745;SDS011;6437;53.686;10.030;2023-04-06T11:02:58;7.28;;;2.90;;
12745;SDS011;6437;53.686;10.030;2023-04-06T11:05:01;7.07;;;2.70;;
12745;SDS011;6437;53.686;10.030;2023-04-06T11:07:03;10.00;;;3.72;;
12745;SDS011;6437;53.686;10.030;2023-04-06T11:09:05;7.78;;;2.50;;
12745;SDS011;6437;53.686;10.030;2023-04-06T11:11:09;8.13;;;3.75;;
12745;SDS011;6437;53.686;10.030;2023-04-06T11:13:15;5.43;;;2.50;;
12745;SDS011;6437;53.686;10.030;2023-04-06T11:15:17;8.25;;;3.45;;
12745;SDS011;6437;53.686;10.030;2023-04-06T11:17:25;8.40;;;4.32;;
12745;SDS011;6437;53.686;10.030;2023-04-06T11:19:27;8.82;;;4.97;;
12745;SDS011;6437;53.686;10.030;2023-04-06T11:21:33;11.93;;;3.00;;
12745;SDS011;6437;53.686;10.030;2023-04-06T11:23:36;9.82;;;4.43;;
12745;SDS011;6437;53.686;10.030;2023-04-06T11:25:38;8.10;;;3.42;;
12745;SDS011;6437;53.686;10.030;2023-04-06T11:27:41;8.85;;;3.65;;
12745;SDS011;6437;53.686;10.030;2023-04-06T11:29:44;9.93;;;5.40;;
12745;SDS011;6437;53.686;10.030;2023-04-06T11:31:47;10.90;;;5.03;;
12745;SDS011;6437;53.686;10.030;2023-04-06T11:33:54;15.73;;;5.22;;
12745;SDS011;6437;53.686;10.030;2023-04-06T11:35:57;10.90;;;5.75;;
12745;SDS011;6437;53.686;10.030;2023-04-06T11:37:59;8.30;;;4.72;;
12745;SDS011;6437;53.686;10.030;2023-04-06T11:40:07;17.98;;;5.80;;
12745;SDS011;6437;53.686;10.030;2023-04-06T11:42:10;11.98;;;5.63;;
12745;SDS011;6437;53.686;10.030;2023-04-06T11:44:13;8.57;;;5.03;;
12745;SDS011;6437;53.686;10.030;2023-04-06T11:46:17;12.52;;;7.15;;
12745;SDS011;6437;53.686;10.030;2023-04-06T11:48:20;8.20;;;5.05;;
12745;SDS011;6437;53.686;10.030;2023-04-06T11:50:23;9.65;;;5.65;;
12745;SDS011;6437;53.686;10.030;2023-04-06T11:52:25;10.45;;;5.38;;
12745;SDS011;6437;53.686;10.030;2023-04-06T11:54:31;9.48;;;5.13;;
12745;SDS011;6437;53.686;10.030;2023-04-06T11:56:34;11.38;;;5.28;;
12745;SDS011;6437;53.686;10.030;2023-04-06T11:58:36;9.38;;;6.00;;
12745;SDS011;6437;53.686;10.030;2023-04-06T12:00:43;11.15;;;6.53;;
12745;SDS011;6437;53.686;10.030;2023-04-06T12:02:46;11.73;;;5.15;;
12745;SDS011;6437;53.686;10.030;2023-04-06T12:04:48;12.05;;;5.22;;
12745;SDS011;6437;53.686;10.030;2023-04-06T12:06:50;7.30;;;4.57;;
12745;SDS011;6437;53.686;10.030;2023-04-06T12:08:52;16.98;;;7.25;;
12745;SDS011;6437;53.686;10.030;2023-04-06T12:10:54;13.00;;;6.65;;
12745;SDS011;6437;53.686;10.030;2023-04-06T12:12:56;10.80;;;6.63;;
12745;SDS011;6437;53.686;10.030;2023-04-06T12:14:58;10.98;;;6.68;;
12745;SDS011;6437;53.686;10.030;2023-04-06T12:17:01;12.85;;;5.82;;
12745;SDS011;6437;53.686;10.030;2023-04-06T12:19:03;13.63;;;6.38;;
12745;SDS011;6437;53.686;10.030;2023-04-06T12:21:05;11.57;;;6.45;;
12745;SDS011;6437;53.686;10.030;2023-04-06T12:23:07;9.90;;;5.57;;
12745;SDS011;6437;53.686;10.030;2023-04-06T12:25:09;8.38;;;5.55;;
12745;SDS011;6437;53.686;10.030;2023-04-06T12:27:12;11.57;;;6.65;;
12745;SDS011;6437;53.686;10.030;2023-04-06T12:29:13;12.73;;;5.40;;
12745;SDS011;6437;53.686;10.030;2023-04-06T12:31:15;11.05;;;6.53;;
12745;SDS011;6437;53.686;10.030;2023-04-06T12:35:21;18.52;;;5.85;;
12745;SDS011;6437;53.686;10.030;2023-04-06T12:37:23;12.70;;;6.18;;
12745;SDS011;6437;53.686;10.030;2023-04-06T12:39:26;11.82;;;5.75;;
12745;SDS011;6437;53.686;10.030;2023-04-06T12:41:29;17.95;;;5.43;;
12745;SDS011;6437;53.686;10.030;2023-04-06T12:43:31;11.30;;;5.88;;